createdAt,value
2022-08-27T00:00:42.589Z,18.77
2022-08-27T00:01:42.612Z,18.78
2022-08-27T00:02:42.558Z,18.78
2022-08-27T00:03:42.527Z,18.78
2022-08-27T00:04:42.515Z,18.78
2022-08-27T00:05:42.512Z,18.81
2022-08-27T00:06:42.567Z,18.81
2022-08-27T00:07:42.483Z,18.88
2022-08-27T00:08:42.468Z,18.89
2022-08-27T00:09:42.458Z,18.92
2022-08-27T00:10:42.444Z,18.93
2022-08-27T00:11:42.490Z,18.96
2022-08-27T00:12:42.430Z,19.02
2022-08-27T00:13:42.418Z,19.08
2022-08-27T00:14:42.404Z,19.14
2022-08-27T00:15:42.388Z,19.15
2022-08-27T00:16:42.476Z,19.15
2022-08-27T00:17:42.399Z,19.14
2022-08-27T00:18:42.359Z,19.14
2022-08-27T00:19:42.366Z,19.12
2022-08-27T00:20:42.346Z,19.09
2022-08-27T00:21:42.368Z,19.04
2022-08-27T00:22:42.312Z,19.02
2022-08-27T00:23:42.305Z,19.00
2022-08-27T00:24:49.151Z,18.99
2022-08-27T00:25:43.272Z,18.98
2022-08-27T00:26:43.424Z,18.95
2022-08-27T00:27:42.255Z,18.92
2022-08-27T00:28:42.243Z,18.89
2022-08-27T00:29:42.226Z,18.86
2022-08-27T00:30:42.231Z,18.83
2022-08-27T00:31:42.309Z,18.78
2022-08-27T00:32:42.198Z,18.77
2022-08-27T00:33:42.190Z,18.74
2022-08-27T00:34:42.172Z,18.75
2022-08-27T00:35:42.153Z,18.75
2022-08-27T00:36:42.194Z,18.78
2022-08-27T00:37:42.132Z,18.80
2022-08-27T00:38:42.124Z,18.77
2022-08-27T00:39:42.114Z,18.77
2022-08-27T00:40:42.113Z,18.77
2022-08-27T00:41:42.139Z,18.80
2022-08-27T00:42:42.075Z,18.81
2022-08-27T00:43:42.068Z,18.80
2022-08-27T00:44:42.050Z,18.77
2022-08-27T00:45:42.100Z,18.74
2022-08-27T00:46:42.082Z,18.74
2022-08-27T00:47:42.023Z,18.77
2022-08-27T00:48:42.040Z,18.78
2022-08-27T00:49:42.000Z,18.83
2022-08-27T00:50:41.995Z,18.89
2022-08-27T00:51:42.019Z,18.99
2022-08-27T00:52:41.974Z,19.00
2022-08-27T00:53:41.951Z,19.02
2022-08-27T00:54:41.955Z,19.07
2022-08-27T00:55:41.941Z,19.07
2022-08-27T00:56:41.978Z,19.09
2022-08-27T00:57:41.913Z,19.12
2022-08-27T00:58:41.904Z,19.18
2022-08-27T00:59:41.891Z,19.21
2022-08-27T01:00:41.947Z,19.24
2022-08-27T01:01:41.974Z,19.29
2022-08-27T01:02:41.865Z,19.31
2022-08-27T01:03:41.849Z,19.36
2022-08-27T01:04:41.844Z,19.37
2022-08-27T01:05:41.818Z,19.40
2022-08-27T01:06:41.858Z,19.44
2022-08-27T01:07:41.800Z,19.44
2022-08-27T01:08:41.809Z,19.45
2022-08-27T01:09:41.781Z,19.47
2022-08-27T01:10:41.769Z,19.47
2022-08-27T01:11:41.791Z,19.45
2022-08-27T01:12:41.750Z,19.44
2022-08-27T01:13:59.091Z,19.40
2022-08-27T01:14:42.718Z,19.39
2022-08-27T01:15:41.692Z,19.36
2022-08-27T01:16:41.781Z,19.34
2022-08-27T01:17:41.680Z,19.31
2022-08-27T01:18:41.678Z,19.27
2022-08-27T01:19:41.652Z,19.22
2022-08-27T01:20:41.661Z,19.21
2022-08-27T01:21:41.693Z,19.21
2022-08-27T01:22:41.641Z,19.19
2022-08-27T01:23:41.621Z,19.19
2022-08-27T01:24:41.611Z,19.18
2022-08-27T01:25:41.580Z,19.16
2022-08-27T01:26:41.635Z,19.14
2022-08-27T01:27:41.562Z,19.08
2022-08-27T01:28:41.570Z,19.04
2022-08-27T01:29:41.535Z,18.99
2022-08-27T01:30:41.533Z,18.98
2022-08-27T01:31:41.595Z,18.96
2022-08-27T01:32:41.514Z,18.95
2022-08-27T01:33:41.490Z,18.96
2022-08-27T01:34:41.515Z,18.93
2022-08-27T01:35:41.470Z,18.90
2022-08-27T01:36:41.508Z,18.89
2022-08-27T01:37:41.441Z,18.92
2022-08-27T01:38:41.442Z,18.89
2022-08-27T01:39:41.422Z,18.92
2022-08-27T01:40:41.418Z,18.92
2022-08-27T01:41:41.438Z,18.95
2022-08-27T01:42:41.398Z,18.98
2022-08-27T01:43:41.372Z,18.98
2022-08-27T01:44:41.366Z,18.99
2022-08-27T01:45:41.359Z,18.98
2022-08-27T01:46:41.436Z,18.95
2022-08-27T01:47:41.320Z,18.93
2022-08-27T01:48:41.327Z,18.95
2022-08-27T01:49:41.301Z,18.93
2022-08-27T01:50:41.290Z,18.95
2022-08-27T01:51:41.337Z,18.96
2022-08-27T01:52:41.273Z,18.96
2022-08-27T01:53:41.253Z,18.95
2022-08-27T01:54:41.259Z,18.93
2022-08-27T01:55:41.236Z,18.92
2022-08-27T01:56:42.270Z,18.95
2022-08-27T01:57:41.213Z,18.95
2022-08-27T01:58:41.217Z,18.98
2022-08-27T01:59:41.184Z,18.99
2022-08-27T02:00:41.240Z,18.99
2022-08-27T02:01:41.239Z,18.99
2022-08-27T02:02:41.163Z,18.98
2022-08-27T02:03:41.148Z,18.98
2022-08-27T02:04:41.138Z,19.00
2022-08-27T02:05:44.630Z,19.04
2022-08-27T02:06:41.173Z,19.07
2022-08-27T02:07:41.093Z,19.07
2022-08-27T02:08:41.081Z,19.11
2022-08-27T02:09:41.069Z,19.12
2022-08-27T02:10:41.099Z,19.15
2022-08-27T02:11:44.935Z,19.16
2022-08-27T02:12:41.044Z,19.18
2022-08-27T02:13:41.025Z,19.15
2022-08-27T02:14:41.014Z,19.14
2022-08-27T02:15:40.993Z,19.11
2022-08-27T02:16:41.291Z,19.09
2022-08-27T02:17:41.980Z,19.09
2022-08-27T02:18:41.675Z,19.07
2022-08-27T02:19:40.939Z,19.04
2022-08-27T02:20:40.949Z,19.04
2022-08-27T02:21:41.000Z,19.04
2022-08-27T02:22:40.920Z,19.04
2022-08-27T02:23:40.912Z,19.00
2022-08-27T02:24:40.907Z,19.00
2022-08-27T02:25:40.875Z,19.02
2022-08-27T02:26:40.925Z,19.08
2022-08-27T02:27:40.862Z,19.08
2022-08-27T02:28:40.847Z,19.04
2022-08-27T02:29:40.835Z,19.07
2022-08-27T02:30:40.822Z,19.07
2022-08-27T02:31:40.895Z,19.08
2022-08-27T02:32:40.806Z,19.08
2022-08-27T02:33:40.798Z,19.04
2022-08-27T02:34:40.770Z,19.00
2022-08-27T02:35:40.769Z,18.99
2022-08-27T02:36:40.800Z,18.98
2022-08-27T02:37:40.739Z,18.96
2022-08-27T02:38:40.734Z,18.95
2022-08-27T02:39:45.514Z,18.95
2022-08-27T02:40:41.707Z,18.92
2022-08-27T02:41:40.729Z,18.90
2022-08-27T02:42:40.692Z,18.88
2022-08-27T02:43:40.669Z,18.88
2022-08-27T02:44:40.656Z,18.88
2022-08-27T02:45:40.639Z,18.92
2022-08-27T02:46:40.740Z,18.92
2022-08-27T02:47:40.622Z,18.92
2022-08-27T02:48:40.606Z,18.90
2022-08-27T02:49:40.595Z,18.90
2022-08-27T02:50:40.586Z,18.84
2022-08-27T02:51:40.611Z,18.81
2022-08-27T02:52:40.570Z,18.80
2022-08-27T02:53:40.554Z,18.77
2022-08-27T02:54:40.549Z,18.75
2022-08-27T02:55:40.538Z,18.73
2022-08-27T02:56:40.566Z,18.71
2022-08-27T02:57:40.506Z,18.66
2022-08-27T02:58:40.500Z,18.63
2022-08-27T02:59:40.479Z,18.59
2022-08-27T03:00:40.484Z,18.56
2022-08-27T03:01:40.601Z,18.53
2022-08-27T03:02:40.508Z,18.50
2022-08-27T03:03:40.447Z,18.50
2022-08-27T03:04:40.434Z,18.47
2022-08-27T03:05:40.409Z,18.45
2022-08-27T03:06:40.460Z,18.44
2022-08-27T03:07:40.422Z,18.43
2022-08-27T03:08:52.650Z,18.41
2022-08-27T03:09:41.371Z,18.41
2022-08-27T03:10:40.354Z,18.43
2022-08-27T03:11:40.391Z,18.43
2022-08-27T03:12:40.357Z,18.43
2022-08-27T03:13:40.319Z,18.40
2022-08-27T03:14:40.310Z,18.37
2022-08-27T03:15:40.357Z,18.34
2022-08-27T03:16:40.290Z,18.31
2022-08-27T03:17:40.333Z,18.25
2022-08-27T03:18:40.278Z,18.22
2022-08-27T03:19:40.263Z,18.20
2022-08-27T03:20:40.236Z,18.19
2022-08-27T03:21:40.217Z,18.13
2022-08-27T03:22:40.276Z,18.10
2022-08-27T03:23:40.208Z,18.08
2022-08-27T03:24:40.203Z,18.08
2022-08-27T03:25:40.187Z,18.05
2022-08-27T03:26:40.176Z,18.05
2022-08-27T03:27:40.205Z,18.00
2022-08-27T03:28:40.149Z,18.01
2022-08-27T03:29:40.141Z,18.04
2022-08-27T03:30:40.134Z,18.07
2022-08-27T03:31:40.166Z,18.07
2022-08-27T03:32:40.162Z,18.10
2022-08-27T03:33:40.094Z,18.13
2022-08-27T03:34:40.087Z,18.18
2022-08-27T03:35:40.085Z,18.25
2022-08-27T03:36:40.055Z,18.35
2022-08-27T03:37:40.093Z,18.47
2022-08-27T03:38:40.044Z,18.50
2022-08-27T03:39:40.031Z,18.58
2022-08-27T03:40:40.028Z,18.65
2022-08-27T03:41:55.005Z,18.77
2022-08-27T03:42:41.038Z,18.89
2022-08-27T03:43:39.988Z,18.95
2022-08-27T03:44:39.988Z,18.96
2022-08-27T03:45:40.919Z,19.00
2022-08-27T03:46:40.996Z,19.04
2022-08-27T03:47:39.976Z,19.08
2022-08-27T03:48:39.962Z,19.07
2022-08-27T03:49:39.910Z,19.09
2022-08-27T03:50:39.904Z,19.11
2022-08-27T03:51:39.897Z,19.11
2022-08-27T03:52:39.919Z,19.12
2022-08-27T03:53:39.848Z,19.14
2022-08-27T03:54:39.848Z,19.16
2022-08-27T03:55:39.842Z,19.16
2022-08-27T03:56:39.837Z,19.18
2022-08-27T03:57:39.859Z,19.18
2022-08-27T03:58:39.814Z,19.18
2022-08-27T03:59:39.823Z,19.19
2022-08-27T04:00:39.793Z,19.18
2022-08-27T04:01:39.817Z,19.22
2022-08-27T04:02:39.846Z,19.21
2022-08-27T04:03:39.753Z,19.21
2022-08-27T04:04:39.736Z,19.21
2022-08-27T04:05:39.746Z,19.22
2022-08-27T04:06:39.722Z,19.22
2022-08-27T04:07:39.757Z,19.21
2022-08-27T04:08:39.692Z,19.22
2022-08-27T04:09:39.692Z,19.22
2022-08-27T04:10:39.682Z,19.22
2022-08-27T04:11:39.672Z,19.22
2022-08-27T04:12:39.682Z,19.26
2022-08-27T04:13:39.644Z,19.26
2022-08-27T04:14:39.628Z,19.27
2022-08-27T04:15:40.708Z,19.26
2022-08-27T04:16:39.596Z,19.26
2022-08-27T04:17:39.644Z,19.26
2022-08-27T04:18:39.583Z,19.24
2022-08-27T04:19:39.575Z,19.26
2022-08-27T04:20:39.562Z,19.24
2022-08-27T04:21:39.544Z,19.27
2022-08-27T04:22:39.574Z,19.29
2022-08-27T04:23:39.518Z,19.29
2022-08-27T04:24:39.491Z,19.29
2022-08-27T04:25:39.518Z,19.29
2022-08-27T04:26:39.485Z,19.30
2022-08-27T04:27:39.532Z,19.30
2022-08-27T04:28:39.465Z,19.30
2022-08-27T04:29:39.841Z,19.31
2022-08-27T04:30:39.431Z,19.31
2022-08-27T04:31:39.462Z,19.33
2022-08-27T04:32:39.463Z,19.30
2022-08-27T04:33:39.397Z,19.33
2022-08-27T04:34:39.425Z,19.33
2022-08-27T04:35:39.383Z,19.33
2022-08-27T04:36:39.364Z,19.34
2022-08-27T04:37:39.404Z,19.34
2022-08-27T04:38:39.354Z,19.33
2022-08-27T04:39:39.344Z,19.34
2022-08-27T04:40:39.335Z,19.33
2022-08-27T04:41:39.318Z,19.33
2022-08-27T04:42:39.346Z,19.34
2022-08-27T04:43:39.289Z,19.34
2022-08-27T04:44:39.284Z,19.37
2022-08-27T04:45:39.275Z,19.37
2022-08-27T04:46:39.331Z,19.36
2022-08-27T04:47:39.294Z,19.36
2022-08-27T04:48:39.242Z,19.37
2022-08-27T04:49:39.234Z,19.37
2022-08-27T04:50:39.226Z,19.39
2022-08-27T04:51:39.368Z,19.39
2022-08-27T04:52:40.319Z,19.40
2022-08-27T04:53:39.184Z,19.40
2022-08-27T04:54:39.174Z,19.40
2022-08-27T04:55:39.160Z,19.44
2022-08-27T04:56:39.150Z,19.44
2022-08-27T04:57:39.175Z,19.44
2022-08-27T04:58:39.106Z,19.45
2022-08-27T04:59:39.116Z,19.47
2022-08-27T05:00:39.100Z,19.47
2022-08-27T05:01:39.162Z,19.47
2022-08-27T05:02:39.143Z,19.48
2022-08-27T05:03:39.070Z,19.48
2022-08-27T05:04:39.059Z,19.48
2022-08-27T05:05:42.712Z,19.49
2022-08-27T05:06:39.039Z,19.49
2022-08-27T05:07:39.079Z,19.51
2022-08-27T05:08:39.014Z,19.51
2022-08-27T05:09:38.998Z,19.54
2022-08-27T05:10:38.992Z,19.52
2022-08-27T05:11:38.995Z,19.48
2022-08-27T05:12:39.026Z,19.51
2022-08-27T05:13:38.974Z,19.51
2022-08-27T05:14:38.945Z,19.51
2022-08-27T05:15:38.961Z,19.51
2022-08-27T05:16:38.915Z,19.51
2022-08-27T05:17:38.966Z,19.49
2022-08-27T05:18:43.111Z,19.51
2022-08-27T05:19:39.894Z,19.52
2022-08-27T05:20:38.889Z,19.51
2022-08-27T05:21:38.917Z,19.51
2022-08-27T05:22:38.896Z,19.54
2022-08-27T05:23:38.864Z,19.52
2022-08-27T05:24:38.843Z,19.55
2022-08-27T05:25:38.823Z,19.55
2022-08-27T05:26:38.808Z,19.56
2022-08-27T05:27:38.845Z,19.55
2022-08-27T05:28:38.784Z,19.56
2022-08-27T05:29:38.766Z,19.58
2022-08-27T05:30:38.789Z,19.58
2022-08-27T05:31:38.816Z,19.58
2022-08-27T05:32:38.802Z,19.62
2022-08-27T05:33:38.749Z,19.62
2022-08-27T05:34:38.713Z,19.62
2022-08-27T05:35:38.717Z,19.64
2022-08-27T05:36:38.714Z,19.64
2022-08-27T05:37:39.735Z,19.67
2022-08-27T05:38:38.673Z,19.69
2022-08-27T05:39:38.683Z,19.70
2022-08-27T05:40:38.663Z,19.69
2022-08-27T05:41:38.652Z,19.73
2022-08-27T05:42:38.624Z,19.73
2022-08-27T05:43:38.666Z,19.77
2022-08-27T05:44:41.423Z,19.77
2022-08-27T05:45:38.624Z,19.81
2022-08-27T05:46:38.622Z,19.79
2022-08-27T05:47:44.427Z,19.77
2022-08-27T05:48:39.613Z,19.76
2022-08-27T05:49:38.551Z,19.70
2022-08-27T05:50:38.535Z,19.73
2022-08-27T05:51:38.548Z,19.71
2022-08-27T05:52:38.515Z,19.73
2022-08-27T05:53:38.555Z,19.79
2022-08-27T05:54:38.501Z,19.84
2022-08-27T05:55:38.489Z,19.88
2022-08-27T05:56:38.480Z,19.94
2022-08-27T05:57:38.463Z,19.92
2022-08-27T05:58:38.490Z,19.94
2022-08-27T05:59:38.435Z,19.99
2022-08-27T06:00:38.414Z,20.03
2022-08-27T06:01:38.411Z,20.03
2022-08-27T06:02:38.447Z,20.04
2022-08-27T06:03:38.449Z,20.09
2022-08-27T06:04:38.385Z,20.10
2022-08-27T06:05:38.426Z,20.11
2022-08-27T06:06:38.364Z,20.11
2022-08-27T06:07:38.344Z,20.07
2022-08-27T06:08:38.405Z,19.95
2022-08-27T06:09:38.341Z,19.96
2022-08-27T06:10:38.312Z,20.03
2022-08-27T06:11:38.315Z,20.07
2022-08-27T06:12:38.283Z,20.10
2022-08-27T06:13:38.530Z,20.14
2022-08-27T06:14:38.267Z,20.21
2022-08-27T06:15:38.349Z,20.21
2022-08-27T06:16:38.260Z,20.24
2022-08-27T06:17:38.242Z,20.26
2022-08-27T06:18:38.271Z,20.31
2022-08-27T06:19:38.219Z,20.29
2022-08-27T06:20:38.204Z,20.26
2022-08-27T06:21:38.203Z,20.25
2022-08-27T06:22:38.179Z,20.22
2022-08-27T06:23:38.271Z,20.19
2022-08-27T06:24:38.158Z,20.13
2022-08-27T06:25:38.156Z,20.13
2022-08-27T06:26:38.139Z,20.14
2022-08-27T06:27:38.125Z,20.14
2022-08-27T06:28:38.155Z,20.18
2022-08-27T06:29:38.123Z,20.21
2022-08-27T06:30:38.172Z,20.28
2022-08-27T06:31:38.833Z,20.32
2022-08-27T06:32:38.069Z,20.36
2022-08-27T06:33:38.103Z,20.37
2022-08-27T06:34:38.049Z,20.41
2022-08-27T06:35:38.041Z,20.40
2022-08-27T06:36:38.035Z,20.44
2022-08-27T06:37:38.035Z,20.50
2022-08-27T06:38:38.046Z,20.58
2022-08-27T06:39:37.999Z,20.59
2022-08-27T06:40:38.032Z,20.55
2022-08-27T06:41:37.971Z,20.59
2022-08-27T06:42:37.954Z,20.51
2022-08-27T06:43:37.998Z,20.37
2022-08-27T06:44:37.933Z,20.37
2022-08-27T06:45:37.943Z,20.21
2022-08-27T06:46:37.970Z,20.16
2022-08-27T06:47:37.910Z,20.22
2022-08-27T06:48:37.939Z,20.28
2022-08-27T06:49:37.877Z,20.32
2022-08-27T06:50:37.878Z,20.26
2022-08-27T06:51:37.855Z,20.28
2022-08-27T06:52:37.843Z,20.32
2022-08-27T06:53:37.905Z,20.34
2022-08-27T06:54:37.832Z,20.39
2022-08-27T06:55:37.847Z,20.41
2022-08-27T06:56:37.794Z,20.41
2022-08-27T06:57:37.794Z,20.37
2022-08-27T06:58:37.815Z,20.40
2022-08-27T06:59:38.693Z,20.48
2022-08-27T07:00:37.752Z,20.43
2022-08-27T07:01:37.811Z,20.48
2022-08-27T07:02:37.763Z,20.55
2022-08-27T07:03:37.763Z,20.59
2022-08-27T07:04:37.708Z,20.65
2022-08-27T07:05:37.699Z,20.62
2022-08-27T07:06:37.685Z,20.67
2022-08-27T07:07:43.185Z,20.72
2022-08-27T07:08:38.714Z,20.77
2022-08-27T07:09:37.663Z,20.75
2022-08-27T07:10:37.652Z,20.72
2022-08-27T07:11:37.639Z,20.84
2022-08-27T07:12:37.614Z,20.80
2022-08-27T07:13:37.655Z,20.84
2022-08-27T07:14:38.399Z,20.99
2022-08-27T07:15:37.634Z,21.07
2022-08-27T07:16:37.590Z,21.05
2022-08-27T07:17:37.588Z,21.14
2022-08-27T07:18:37.606Z,21.09
2022-08-27T07:19:37.546Z,21.05
2022-08-27T07:20:37.533Z,20.96
2022-08-27T07:21:37.540Z,21.02
2022-08-27T07:22:37.507Z,21.09
2022-08-27T07:23:37.535Z,21.25
2022-08-27T07:24:37.492Z,21.36
2022-08-27T07:25:37.485Z,21.36
2022-08-27T07:26:37.470Z,21.42
2022-08-27T07:27:37.469Z,21.48
2022-08-27T07:28:37.494Z,21.43
2022-08-27T07:29:37.460Z,21.37
2022-08-27T07:30:37.471Z,21.39
2022-08-27T07:31:37.431Z,21.39
2022-08-27T07:32:37.405Z,21.40
2022-08-27T07:33:37.443Z,21.39
2022-08-27T07:34:37.364Z,21.30
2022-08-27T07:35:37.360Z,21.52
2022-08-27T07:36:37.359Z,21.64
2022-08-27T07:37:37.355Z,21.76
2022-08-27T07:38:37.384Z,21.92
2022-08-27T07:39:37.321Z,22.11
2022-08-27T07:40:37.395Z,21.96
2022-08-27T07:41:37.353Z,22.00
2022-08-27T07:42:37.292Z,22.00
2022-08-27T07:43:37.283Z,22.04
2022-08-27T07:44:37.319Z,22.18
2022-08-27T07:45:37.340Z,22.38
2022-08-27T07:46:40.095Z,22.57
2022-08-27T07:47:37.231Z,22.65
2022-08-27T07:48:37.918Z,22.65
2022-08-27T07:49:37.250Z,22.66
2022-08-27T07:50:37.194Z,22.68
2022-08-27T07:51:37.204Z,22.65
2022-08-27T07:52:37.175Z,22.53
2022-08-27T07:53:37.174Z,22.48
2022-08-27T07:54:37.192Z,22.50
2022-08-27T07:55:37.164Z,22.44
2022-08-27T07:56:37.122Z,22.36
2022-08-27T07:57:37.119Z,22.38
2022-08-27T07:58:37.124Z,22.32
2022-08-27T07:59:37.139Z,22.11
2022-08-27T08:00:37.103Z,22.02
2022-08-27T08:01:37.107Z,21.77
2022-08-27T08:02:37.149Z,21.83
2022-08-27T08:03:37.053Z,21.93
2022-08-27T08:04:37.074Z,21.91
2022-08-27T08:05:37.028Z,21.95
2022-08-27T08:06:37.010Z,21.89
2022-08-27T08:07:36.996Z,21.77
2022-08-27T08:08:36.996Z,21.76
2022-08-27T08:09:37.028Z,21.80
2022-08-27T08:10:36.971Z,21.89
2022-08-27T08:11:36.982Z,21.98
2022-08-27T08:12:36.958Z,22.07
2022-08-27T08:13:36.936Z,22.02
2022-08-27T08:14:36.981Z,22.18
2022-08-27T08:15:36.922Z,22.22
2022-08-27T08:16:36.942Z,22.32
2022-08-27T08:17:36.903Z,22.32
2022-08-27T08:18:36.887Z,22.29
2022-08-27T08:19:36.949Z,22.41
2022-08-27T08:20:56.962Z,22.53
2022-08-27T08:21:37.849Z,22.65
2022-08-27T08:22:36.839Z,22.69
2022-08-27T08:23:36.839Z,22.72
2022-08-27T08:24:36.856Z,22.63
2022-08-27T08:25:38.558Z,22.54
2022-08-27T08:26:36.799Z,22.60
2022-08-27T08:27:36.824Z,22.68
2022-08-27T08:28:36.786Z,22.65
2022-08-27T08:29:36.807Z,22.62
2022-08-27T08:30:36.793Z,22.62
2022-08-27T08:31:36.747Z,22.68
2022-08-27T08:32:36.735Z,22.90
2022-08-27T08:33:36.723Z,23.00
2022-08-27T08:34:36.744Z,23.09
2022-08-27T08:35:40.692Z,23.40
2022-08-27T08:36:36.681Z,23.66
2022-08-27T08:37:36.654Z,23.84
2022-08-27T08:38:36.654Z,23.83
2022-08-27T08:39:36.688Z,24.63
2022-08-27T08:40:36.683Z,25.43
2022-08-27T08:41:36.619Z,25.62
2022-08-27T08:42:36.613Z,25.73
2022-08-27T08:43:36.613Z,25.77
2022-08-27T08:44:36.647Z,25.26
2022-08-27T08:45:36.652Z,24.98
2022-08-27T08:46:36.585Z,24.24
2022-08-27T08:47:36.569Z,23.91
2022-08-27T08:48:36.560Z,23.86
2022-08-27T08:49:36.580Z,23.86
2022-08-27T08:50:36.536Z,23.80
2022-08-27T08:51:36.517Z,23.78
2022-08-27T08:52:36.499Z,23.69
2022-08-27T08:53:36.493Z,23.59
2022-08-27T08:54:36.534Z,23.58
2022-08-27T08:55:36.473Z,23.51
2022-08-27T08:56:36.472Z,23.47
2022-08-27T08:57:36.452Z,23.58
2022-08-27T08:58:36.439Z,23.61
2022-08-27T08:59:36.465Z,23.34
2022-08-27T09:00:36.428Z,23.39
2022-08-27T09:01:36.433Z,23.62
2022-08-27T09:02:36.395Z,23.81
2022-08-27T09:03:36.469Z,23.78
2022-08-27T09:04:36.416Z,23.86
2022-08-27T09:05:36.359Z,23.86
2022-08-27T09:06:36.352Z,23.80
2022-08-27T09:07:36.838Z,23.66
2022-08-27T09:08:41.114Z,23.51
2022-08-27T09:09:37.349Z,23.46
2022-08-27T09:10:36.303Z,23.31
2022-08-27T09:11:36.289Z,23.12
2022-08-27T09:12:36.289Z,23.17
2022-08-27T09:13:36.319Z,23.17
2022-08-27T09:14:36.297Z,23.21
2022-08-27T09:15:36.269Z,23.32
2022-08-27T09:16:36.288Z,23.24
2022-08-27T09:17:36.235Z,23.24
2022-08-27T09:18:36.215Z,23.21
2022-08-27T09:19:36.250Z,23.23
2022-08-27T09:20:36.204Z,23.08
2022-08-27T09:21:36.179Z,22.99
2022-08-27T09:22:36.177Z,23.03
2022-08-27T09:23:36.154Z,23.20
2022-08-27T09:24:36.203Z,23.25
2022-08-27T09:25:36.157Z,23.37
2022-08-27T09:26:37.261Z,23.40
2022-08-27T09:27:36.110Z,23.46
2022-08-27T09:28:36.102Z,23.28
2022-08-27T09:29:36.134Z,23.20
2022-08-27T09:30:36.137Z,23.20
2022-08-27T09:31:36.066Z,23.23
2022-08-27T09:32:36.069Z,23.18
2022-08-27T09:33:43.858Z,23.27
2022-08-27T09:34:37.089Z,23.36
2022-08-27T09:35:36.030Z,23.43
2022-08-27T09:36:36.019Z,23.44
2022-08-27T09:37:36.023Z,23.50
2022-08-27T09:38:35.990Z,23.54
2022-08-27T09:39:36.019Z,23.54
2022-08-27T09:40:36.018Z,23.43
2022-08-27T09:41:35.952Z,23.43
2022-08-27T09:42:35.944Z,23.37
2022-08-27T09:43:35.945Z,23.36
2022-08-27T09:44:36.029Z,23.20
2022-08-27T09:45:36.007Z,23.21
2022-08-27T09:46:35.919Z,23.23
2022-08-27T09:47:35.890Z,23.25
2022-08-27T09:48:35.884Z,23.17
2022-08-27T09:49:35.929Z,23.17
2022-08-27T09:50:37.097Z,23.20
2022-08-27T09:51:35.857Z,23.20
2022-08-27T09:52:37.973Z,23.32
2022-08-27T09:53:35.822Z,23.40
2022-08-27T09:54:35.869Z,23.40
2022-08-27T09:55:35.814Z,23.48
2022-08-27T09:56:35.815Z,23.55
2022-08-27T09:57:35.800Z,23.59
2022-08-27T09:58:35.825Z,23.50
2022-08-27T09:59:35.810Z,23.62
2022-08-27T10:00:35.753Z,23.65
2022-08-27T10:01:35.816Z,23.50
2022-08-27T10:02:35.739Z,23.50
2022-08-27T10:03:35.785Z,23.48
2022-08-27T10:04:50.061Z,23.43
2022-08-27T10:05:36.705Z,23.18
2022-08-27T10:06:35.701Z,23.21
2022-08-27T10:07:35.687Z,23.20
2022-08-27T10:08:35.663Z,23.23
2022-08-27T10:09:35.688Z,23.21
2022-08-27T10:10:35.642Z,23.21
2022-08-27T10:11:35.634Z,23.28
2022-08-27T10:12:35.618Z,23.37
2022-08-27T10:13:35.609Z,23.36
2022-08-27T10:14:35.650Z,23.37
2022-08-27T10:15:41.873Z,23.48
2022-08-27T10:16:36.635Z,23.58
2022-08-27T10:17:35.571Z,23.58
2022-08-27T10:18:35.556Z,23.68
2022-08-27T10:19:35.601Z,23.80
2022-08-27T10:20:35.545Z,23.84
2022-08-27T10:21:35.518Z,23.86
2022-08-27T10:22:35.524Z,23.73
2022-08-27T10:23:35.506Z,23.66
2022-08-27T10:24:35.539Z,23.62
2022-08-27T10:25:35.483Z,23.54
2022-08-27T10:26:35.464Z,23.59
2022-08-27T10:27:35.455Z,23.73
2022-08-27T10:28:35.459Z,23.80
2022-08-27T10:29:35.474Z,23.73
2022-08-27T10:30:35.433Z,23.54
2022-08-27T10:31:35.507Z,23.51
2022-08-27T10:32:35.422Z,23.51
2022-08-27T10:33:35.428Z,23.46
2022-08-27T10:34:35.451Z,23.18
2022-08-27T10:35:35.395Z,23.21
2022-08-27T10:36:36.366Z,23.20
2022-08-27T10:37:40.326Z,23.18
2022-08-27T10:38:39.049Z,23.23
2022-08-27T10:39:36.369Z,23.31
2022-08-27T10:40:35.391Z,23.37
2022-08-27T10:41:35.284Z,23.46
2022-08-27T10:42:35.281Z,23.65
2022-08-27T10:43:35.297Z,23.73
2022-08-27T10:44:35.341Z,23.91
2022-08-27T10:45:35.294Z,24.08
2022-08-27T10:46:35.316Z,24.14
2022-08-27T10:47:35.261Z,24.36
2022-08-27T10:48:35.239Z,24.50
2022-08-27T10:49:35.291Z,24.48
2022-08-27T10:50:35.210Z,24.54
2022-08-27T10:51:35.195Z,24.63
2022-08-27T10:52:35.203Z,24.80
2022-08-27T10:53:35.175Z,24.93
2022-08-27T10:54:35.213Z,25.08
2022-08-27T10:55:35.146Z,25.23
2022-08-27T10:56:35.152Z,25.44
2022-08-27T10:57:55.190Z,25.59
2022-08-27T10:58:36.112Z,25.73
2022-08-27T10:59:35.158Z,25.63
2022-08-27T11:00:35.173Z,25.54
2022-08-27T11:01:35.090Z,25.22
2022-08-27T11:02:35.121Z,25.11
2022-08-27T11:03:35.069Z,25.04
2022-08-27T11:04:35.056Z,24.93
2022-08-27T11:05:35.083Z,24.91
2022-08-27T11:06:35.025Z,24.77
2022-08-27T11:07:35.009Z,24.43
2022-08-27T11:08:35.036Z,24.36
2022-08-27T11:09:34.985Z,24.43
2022-08-27T11:10:35.016Z,24.29
2022-08-27T11:12:12.761Z,24.29
2022-08-27T11:12:35.954Z,24.26
2022-08-27T11:13:34.959Z,24.29
2022-08-27T11:14:34.967Z,24.26
2022-08-27T11:15:34.987Z,24.32
2022-08-27T11:16:34.963Z,24.26
2022-08-27T11:17:34.933Z,24.20
2022-08-27T11:18:34.896Z,24.10
2022-08-27T11:19:34.871Z,24.02
2022-08-27T11:20:34.953Z,24.02
2022-08-27T11:21:34.871Z,23.99
2022-08-27T11:22:34.874Z,23.98
2022-08-27T11:23:34.858Z,23.83
2022-08-27T11:24:35.308Z,23.91
2022-08-27T11:25:34.872Z,23.92
2022-08-27T11:26:34.820Z,23.80
2022-08-27T11:27:34.796Z,23.96
2022-08-27T11:28:34.798Z,24.11
2022-08-27T11:29:34.779Z,24.17
2022-08-27T11:30:34.831Z,24.13
2022-08-27T11:31:34.814Z,24.18
2022-08-27T11:32:34.745Z,24.21
2022-08-27T11:33:34.725Z,24.28
2022-08-27T11:34:34.746Z,24.28
2022-08-27T11:35:34.849Z,24.23
2022-08-27T11:36:34.735Z,24.21
2022-08-27T11:37:34.687Z,24.06
2022-08-27T11:38:34.695Z,24.24
2022-08-27T11:39:34.692Z,24.43
2022-08-27T11:40:34.724Z,24.73
2022-08-27T11:41:44.706Z,24.98
2022-08-27T11:42:35.613Z,25.14
2022-08-27T11:43:34.642Z,25.28
2022-08-27T11:44:34.666Z,25.48
2022-08-27T11:45:34.613Z,25.72
2022-08-27T11:46:34.652Z,25.81
2022-08-27T11:47:34.588Z,25.98
2022-08-27T11:48:34.568Z,26.10
2022-08-27T11:49:34.621Z,26.23
2022-08-27T11:50:34.558Z,26.34
2022-08-27T11:51:34.532Z,26.33
2022-08-27T11:52:34.539Z,26.29
2022-08-27T11:53:34.514Z,26.37
2022-08-27T11:54:35.550Z,26.16
2022-08-27T11:55:34.494Z,26.16
2022-08-27T11:56:34.487Z,26.21
2022-08-27T11:57:34.478Z,25.88
2022-08-27T11:58:34.450Z,25.69
2022-08-27T11:59:35.479Z,25.60
2022-08-27T12:00:34.453Z,25.31
2022-08-27T12:01:34.429Z,25.17
2022-08-27T12:02:34.428Z,25.23
2022-08-27T12:03:35.473Z,25.38
2022-08-27T12:04:34.468Z,25.53
2022-08-27T12:05:34.434Z,25.73
2022-08-27T12:06:34.362Z,26.02
2022-08-27T12:07:34.374Z,26.41
2022-08-27T12:08:34.339Z,26.26
2022-08-27T12:09:34.335Z,26.23
2022-08-27T12:10:34.379Z,26.23
2022-08-27T12:11:34.300Z,26.15
2022-08-27T12:12:34.327Z,26.13
2022-08-27T12:13:34.319Z,25.85
2022-08-27T12:14:34.290Z,26.09
2022-08-27T12:15:34.721Z,26.16
2022-08-27T12:16:34.384Z,26.00
2022-08-27T12:17:34.242Z,26.18
2022-08-27T12:18:34.266Z,26.15
2022-08-27T12:19:34.240Z,25.78
2022-08-27T12:20:34.274Z,25.66
2022-08-27T12:21:34.220Z,25.60
2022-08-27T12:22:39.068Z,25.36
2022-08-27T12:23:35.201Z,25.28
2022-08-27T12:24:34.184Z,25.46
2022-08-27T12:25:34.226Z,25.75
2022-08-27T12:26:34.158Z,26.03
2022-08-27T12:27:34.159Z,26.38
2022-08-27T12:28:34.139Z,26.52
2022-08-27T12:29:34.134Z,26.48
2022-08-27T12:30:34.171Z,26.37
2022-08-27T12:31:34.148Z,26.41
2022-08-27T12:32:34.106Z,26.65
2022-08-27T12:33:34.071Z,26.96
2022-08-27T12:34:34.071Z,26.99
2022-08-27T12:35:34.110Z,27.63
2022-08-27T12:36:34.064Z,28.00
2022-08-27T12:37:34.036Z,28.15
2022-08-27T12:38:34.001Z,28.27
2022-08-27T12:39:33.991Z,28.00
2022-08-27T12:40:34.092Z,27.70
2022-08-27T12:41:44.104Z,27.32
2022-08-27T12:42:34.961Z,26.97
2022-08-27T12:43:33.962Z,26.75
2022-08-27T12:44:33.974Z,26.83
2022-08-27T12:45:33.989Z,26.74
2022-08-27T12:46:34.038Z,26.68
2022-08-27T12:47:33.942Z,26.68
2022-08-27T12:48:33.917Z,26.56
2022-08-27T12:49:37.849Z,26.47
2022-08-27T12:50:34.927Z,26.58
2022-08-27T12:51:33.878Z,26.62
2022-08-27T12:52:33.861Z,26.55